Time;durP1;ratioP1;P1;durP2;ratioP2;P2;SDS_P1;SDS_P2;PMS_P1;PMS_P2;Temp;Humidity;BMP_temperature;BMP_pressure;BME280_temperature;BME280_humidity;BME280_pressure;Samples;Min_cycle;Max_cycle;Signal;HPM_P1;HPM_P2
2023/05/03 00:02:01;;;;;;;23.33;12.00;;;;;;;14.16;83.01;101473.06;5071943;28;20029;-82
2023/05/03 00:04:27;;;;;;;16.20;11.73;;;;;;;14.25;82.62;101481.44;5071711;28;20150;-80
2023/05/03 00:06:52;;;;;;;22.48;12.60;;;;;;;14.18;82.72;101459.44;5071458;28;20107;-80
2023/05/03 00:09:18;;;;;;;18.23;12.38;;;;;;;14.16;83.48;101473.06;5071506;28;20079;-81
2023/05/03 00:11:44;;;;;;;33.50;12.82;;;;;;;14.15;83.36;101476.78;5071610;28;20028;-83
2023/05/03 00:14:09;;;;;;;23.73;12.38;;;;;;;14.07;83.28;101463.00;5078055;28;20024;-83
2023/05/03 00:16:35;;;;;;;20.58;12.40;;;;;;;14.08;83.56;101485.53;5076753;28;20394;-81
2023/05/03 00:19:00;;;;;;;16.67;11.15;;;;;;;14.05;83.64;101481.22;5079079;28;20488;-81
2023/05/03 00:21:27;;;;;;;24.90;11.73;;;;;;;13.94;83.91;101467.72;5078840;28;20032;-80
2023/05/03 00:23:52;;;;;;;20.15;10.82;;;;;;;14.08;83.92;101488.22;5079535;28;20115;-81
2023/05/03 00:26:18;;;;;;;19.83;11.52;;;;;;;14.05;84.22;101475.81;5074489;28;20071;-81
2023/05/03 00:28:43;;;;;;;19.33;11.38;;;;;;;14.14;84.03;101479.59;5069270;28;20045;-81
2023/05/03 00:31:09;;;;;;;19.80;10.65;;;;;;;14.23;83.86;101483.38;5070859;28;20107;-81
2023/05/03 00:33:36;;;;;;;20.50;11.48;;;;;;;14.18;83.34;101475.66;5070721;28;20029;-82
2023/05/03 00:36:09;;;;;;;38.83;14.50;;;;;;;14.20;83.88;101476.38;5070580;28;20423;-82
2023/05/03 00:38:35;;;;;;;23.25;11.40;;;;;;;14.22;83.66;101465.47;5068099;28;20041;-81
2023/05/03 00:41:02;;;;;;;19.88;12.82;;;;;;;14.30;83.39;101473.78;5070423;28;20036;-81
2023/05/03 00:43:27;;;;;;;28.70;12.38;;;;;;;14.26;83.10;101472.31;5070265;28;20016;-79
2023/05/03 00:45:53;;;;;;;15.48;10.95;;;;;;;14.26;83.56;101475.00;5070335;28;20491;-82
2023/05/03 00:48:19;;;;;;;25.08;11.45;;;;;;;14.23;83.49;101470.72;5070431;28;20027;-82
2023/05/03 00:50:46;;;;;;;20.98;11.65;;;;;;;14.26;83.36;101461.47;5070225;28;20028;-80
2023/05/03 00:53:12;;;;;;;17.92;11.32;;;;;;;14.37;82.88;101469.63;5070229;28;20054;-82
2023/05/03 00:55:39;;;;;;;24.45;13.52;;;;;;;14.36;81.89;101455.22;5071063;28;20043;-81
2023/05/03 00:58:05;;;;;;;23.67;12.52;;;;;;;14.38;81.53;101458.66;5070339;28;20024;-80
2023/05/03 01:00:31;;;;;;;22.50;12.73;;;;;;;14.39;80.70;101456.81;5070319;28;20506;-80
2023/05/03 01:02:57;;;;;;;19.02;11.75;;;;;;;14.44;80.75;101465.38;5068924;28;20021;-80
2023/05/03 01:05:27;;;;;;;20.17;12.13;;;;;;;14.37;80.89;101456.91;5069939;28;20556;-80
2023/05/03 01:08:06;;;;;;;17.60;11.52;;;;;;;14.34;81.03;101461.75;5070154;28;20032;-81
2023/05/03 01:11:04;;;;;;;17.80;12.05;;;;;;;14.29;81.33;101445.00;5070067;28;20047;-81
2023/05/03 01:13:57;;;;;;;20.10;12.52;;;;;;;14.26;81.51;101448.81;5028059;28;20033;-81
2023/05/03 01:16:37;;;;;;;24.23;13.07;;;;;;;14.29;82.01;101450.41;5027979;28;20069;-81
2023/05/03 01:19:34;;;;;;;28.27;12.50;;;;;;;14.26;81.92;101450.66;5030064;28;20071;-81
2023/05/03 01:22:10;;;;;;;23.80;11.50;;;;;;;14.21;82.32;101442.06;4987162;28;20517;-80
2023/05/03 01:24:37;;;;;;;17.48;11.85;;;;;;;14.17;82.18;101452.28;5027530;28;20814;-82
2023/05/03 01:27:03;;;;;;;16.92;11.60;;;;;;;14.20;81.93;101446.63;5027203;28;20029;-82
2023/05/03 01:29:29;;;;;;;23.60;12.40;;;;;;;14.04;82.02;101430.81;5027487;28;20126;-80
2023/05/03 01:32:00;;;;;;;25.08;11.80;;;;;;;14.11;82.22;101445.56;5027169;28;20076;-80
2023/05/03 01:34:53;;;;;;;22.15;12.13;;;;;;;14.01;82.77;101447.28;5027148;28;20060;-81
2023/05/03 01:37:20;;;;;;;20.17;12.45;;;;;;;14.07;82.84;101454.91;5026276;28;20054;-81
2023/05/03 01:40:03;;;;;;;25.02;13.75;;;;;;;14.07;82.98;101449.50;5027037;28;20083;-82
2023/05/03 01:42:28;;;;;;;;;;;;;;;14.04;83.09;101463.28;5011449;28;20671;-81
2023/05/03 01:44:55;;;;;;;23.02;10.68;;;;;;;14.00;83.56;101461.81;5027113;28;19909;-80
2023/05/03 01:47:21;;;;;;;19.60;11.65;;;;;;;13.90;84.17;101466.25;4977950;28;20037;-82
2023/05/03 01:49:47;;;;;;;13.52;10.60;;;;;;;13.88;84.52;101446.56;5039083;28;20046;-81
2023/05/03 01:52:13;;;;;;;16.52;10.75;;;;;;;13.90;84.81;101447.34;5069594;28;20108;-79
2023/05/03 01:54:38;;;;;;;21.10;12.02;;;;;;;14.07;84.19;101457.59;5069548;28;20601;-81
2023/05/03 01:57:04;;;;;;;17.05;11.63;;;;;;;14.00;83.89;101451.00;5069633;28;20027;-80
2023/05/03 01:59:29;;;;;;;16.48;10.80;;;;;;;13.99;84.33;101443.88;5069381;28;20059;-80
2023/05/03 02:01:55;;;;;;;23.95;11.13;;;;;;;14.01;84.46;101451.84;5068067;28;20020;-82
2023/05/03 02:04:20;;;;;;;18.35;11.18;;;;;;;13.99;84.01;101448.41;5069490;28;20028;-82
2023/05/03 02:06:45;;;;;;;19.70;11.32;;;;;;;14.09;84.13;101454.78;5070085;28;20547;-81
2023/05/03 02:09:11;;;;;;;16.23;10.35;;;;;;;14.05;83.71;101431.69;5070401;28;20028;-81
2023/05/03 02:11:37;;;;;;;13.88;11.10;;;;;;;13.98;83.48;101428.63;5070188;28;20027;-80
2023/05/03 02:14:02;;;;;;;19.13;10.98;;;;;;;14.05;83.59;101443.34;5069941;28;20024;-82
2023/05/03 02:16:28;;;;;;;17.27;10.63;;;;;;;14.01;83.51;101441.88;5074253;28;20060;-81
2023/05/03 02:18:58;;;;;;;19.95;11.77;;;;;;;14.14;83.23;101460.66;5073794;28;20020;-82
2023/05/03 02:21:24;;;;;;;43.20;13.13;;;;;;;14.19;83.46;101455.72;5071468;28;20041;-81
2023/05/03 02:23:50;;;;;;;34.80;11.43;;;;;;;14.17;83.50;101461.28;5069228;28;20459;-80
2023/05/03 02:26:16;;;;;;;28.27;11.52;;;;;;;14.14;83.79;101448.00;5069253;28;20111;-81
2023/05/03 02:28:41;;;;;;;46.38;16.10;;;;;;;14.14;83.91;101452.53;5069580;28;20028;-82
2023/05/03 02:31:06;;;;;;;22.50;12.40;;;;;;;14.08;84.45;101451.22;5069509;28;20718;-81
2023/05/03 02:33:32;;;;;;;30.55;13.75;;;;;;;14.08;84.75;101464.75;5067736;28;20446;-80
2023/05/03 02:35:57;;;;;;;24.08;12.15;;;;;;;14.00;85.11;101461.81;5069179;28;20060;-80
2023/05/03 02:38:23;;;;;;;32.90;13.55;;;;;;;14.01;85.46;101458.13;5069097;28;20021;-80
2023/05/03 02:40:48;;;;;;;29.98;12.82;;;;;;;13.98;85.52;101458.38;5069243;28;20431;-80
2023/05/03 02:43:14;;;;;;;24.35;11.93;;;;;;;13.94;85.94;101462.28;5069254;28;20075;-81
2023/05/03 02:45:39;;;;;;;24.88;13.18;;;;;;;13.90;86.53;101468.09;5068145;28;20036;-80
2023/05/03 02:48:05;;;;;;;23.75;11.70;;;;;;;13.92;86.64;101464.28;5070573;28;20028;-83
2023/05/03 02:50:30;;;;;;;32.85;12.20;;;;;;;13.82;86.93;101460.59;5073103;28;20508;-81
2023/05/03 02:52:56;;;;;;;31.05;13.07;;;;;;;13.86;87.02;101459.38;5073266;28;20124;-80
2023/05/03 02:55:21;;;;;;;22.10;11.55;;;;;;;13.84;87.12;101464.06;5073252;28;20430;-80
2023/05/03 02:57:47;;;;;;;21.67;12.10;;;;;;;13.64;86.89;101448.59;5073810;28;20024;-79
2023/05/03 03:00:14;;;;;;;21.02;12.02;;;;;;;13.75;87.05;101472.06;5073568;28;20024;-81
2023/05/03 03:02:40;;;;;;;30.27;12.63;;;;;;;13.69;87.08;101468.00;5073818;28;20756;-80
2023/05/03 03:05:05;;;;;;;18.48;11.93;;;;;;;13.68;87.37;101468.97;5072315;28;20040;-80
2023/05/03 03:07:31;;;;;;;31.75;11.45;;;;;;;13.71;87.43;101466.03;5074773;28;20020;-82
2023/05/03 03:09:56;;;;;;;22.13;11.93;;;;;;;13.66;87.14;101462.84;5073355;28;20028;-80
2023/05/03 03:12:22;;;;;;;29.67;12.95;;;;;;;13.77;87.07;101453.84;5072680;28;20020;-80
2023/05/03 03:14:47;;;;;;;21.23;11.80;;;;;;;13.87;86.58;101466.50;5076263;28;20032;-82
2023/05/03 03:17:13;;;;;;;24.58;11.75;;;;;;;13.93;86.23;101465.16;5075767;28;20442;-84
2023/05/03 03:19:38;;;;;;;27.33;12.02;;;;;;;13.88;86.11;101462.81;5072491;28;20035;-80
2023/05/03 03:22:04;;;;;;;26.55;12.68;;;;;;;13.89;86.29;101472.66;5072052;28;20469;-78
2023/05/03 03:24:29;;;;;;;22.70;11.82;;;;;;;13.78;86.66;101459.16;5072230;28;20445;-77
2023/05/03 03:26:55;;;;;;;21.10;13.02;;;;;;;13.87;87.19;101469.22;5072104;28;20478;-79
2023/05/03 03:29:20;;;;;;;25.08;13.27;;;;;;;13.85;87.71;101452.22;5072185;28;20051;-78
2023/05/03 03:31:45;;;;;;;26.48;13.07;;;;;;;13.95;87.45;101476.69;5070784;28;20035;-81
2023/05/03 03:34:12;;;;;;;31.55;14.27;;;;;;;14.06;87.21;101477.53;5072126;28;20032;-79
2023/05/03 03:36:38;;;;;;;41.50;14.57;;;;;;;14.10;86.99;101473.59;5072517;28;20110;-80
2023/05/03 03:39:04;;;;;;;45.35;14.80;;;;;;;14.16;86.67;101474.91;5072451;28;20025;-79
2023/05/03 03:41:31;;;;;;;23.10;12.70;;;;;;;14.22;86.37;101484.41;5071948;28;20123;-80
2023/05/03 03:43:56;;;;;;;23.58;13.93;;;;;;;14.23;86.13;101483.38;5071829;28;20104;-79
2023/05/03 03:46:22;;;;;;;23.02;13.02;;;;;;;14.31;86.17;101491.75;5071804;28;20112;-79
2023/05/03 03:48:47;;;;;;;23.38;13.00;;;;;;;14.24;86.10;101507.63;5072120;28;20036;-82
2023/05/03 03:51:13;;;;;;;20.92;12.60;;;;;;;14.24;86.45;101498.66;5071676;28;20024;-79
2023/05/03 03:53:38;;;;;;;42.70;13.30;;;;;;;14.22;86.67;101484.41;5070882;28;20020;-79
2023/05/03 03:56:04;;;;;;;38.35;13.65;;;;;;;14.37;86.48;101496.69;5071840;28;20032;-81
2023/05/03 03:58:30;;;;;;;26.92;14.15;;;;;;;14.40;86.14;101482.91;5071985;28;20029;-79
2023/05/03 04:00:55;;;;;;;29.65;13.73;;;;;;;14.52;85.92;101484.56;5070689;28;20092;-82
2023/05/03 04:03:21;;;;;;;26.85;14.10;;;;;;;14.63;85.44;101481.81;5072064;28;20021;-80
2023/05/03 04:05:46;;;;;;;29.83;13.57;;;;;;;14.54;84.71;101471.75;5072853;28;20028;-84
2023/05/03 04:08:12;;;;;;;40.00;14.13;;;;;;;14.62;84.22;101480.06;5072792;28;20399;-82
2023/05/03 04:10:37;;;;;;;26.83;13.30;;;;;;;14.69;83.55;101487.56;5072832;28;20033;-81
2023/05/03 04:13:03;;;;;;;38.42;15.25;;;;;;;14.67;83.29;101484.13;5080546;28;20021;-78
2023/05/03 04:15:28;;;;;;;26.42;12.35;;;;;;;14.71;83.06;101485.56;5078116;28;20043;-89
2023/05/03 04:17:53;;;;;;;43.35;12.52;;;;;;;14.79;82.45;101487.63;5070975;28;20024;-81
2023/05/03 04:20:20;;;;;;;23.10;11.57;;;;;;;14.76;82.01;101496.03;5070865;28;20070;-81
2023/05/03 04:22:45;;;;;;;37.90;13.02;;;;;;;14.79;82.00;101482.22;5070413;28;20028;-85
2023/05/03 04:25:15;;;;;;;39.97;14.98;;;;;;;14.85;81.28;101492.53;5070973;28;20563;-87
2023/05/03 04:27:41;;;;;;;38.03;13.43;;;;;;;14.97;80.71;101504.16;5071456;28;20467;-85
2023/05/03 04:30:08;;;;;;;48.83;12.43;;;;;;;14.76;80.51;101471.66;5070480;28;20117;-82
2023/05/03 04:32:36;;;;;;;40.63;14.45;;;;;;;14.94;80.09;101480.91;5086460;28;20040;-81
2023/05/03 04:35:09;;;;;;;32.20;13.13;;;;;;;14.90;79.82;101495.69;5070999;28;20060;-81
2023/05/03 04:37:36;;;;;;;45.72;14.48;;;;;;;14.93;80.04;101498.13;5070838;28;20556;-84
2023/05/03 04:40:06;;;;;;;45.38;11.48;;;;;;;15.07;79.25;101511.38;5069906;28;20020;-82
2023/05/03 04:42:31;;;;;;;33.45;12.60;;;;;;;15.13;78.98;101499.16;5069730;28;20498;-80
2023/05/03 04:44:57;;;;;;;39.08;12.70;;;;;;;15.25;78.95;101496.22;5069760;28;20028;-78
2023/05/03 04:47:24;;;;;;;45.92;14.90;;;;;;;15.33;78.73;101500.09;5070325;28;20032;-78
2023/05/03 04:49:50;;;;;;;42.65;14.23;;;;;;;15.48;78.49;101501.50;5072748;28;20108;-86
2023/05/03 04:52:16;;;;;;;37.72;12.13;;;;;;;15.50;77.95;101494.13;5071322;28;20032;-81
2023/05/03 04:54:41;;;;;;;52.75;15.65;;;;;;;15.54;77.49;101481.97;5069921;28;20086;-85
2023/05/03 04:57:09;;;;;;;29.90;12.27;;;;;;;15.59;77.39;101502.28;5069361;28;20028;-79
2023/05/03 04:59:34;;;;;;;79.95;22.73;;;;;;;15.59;77.88;101504.16;5070418;28;20024;-83
2023/05/03 05:02:00;;;;;;;40.65;12.38;;;;;;;15.47;77.63;101495.22;5071573;28;20542;-81
2023/05/03 05:04:25;;;;;;;65.65;15.43;;;;;;;15.63;77.49;101511.00;5071888;28;20460;-81
2023/05/03 05:06:52;;;;;;;38.53;10.85;;;;;;;15.50;77.27;101513.94;5074477;28;20029;-86
2023/05/03 05:09:27;;;;;;;49.63;12.02;;;;;;;15.42;77.30;101488.44;5078999;28;20031;-83
2023/05/03 05:11:53;;;;;;;26.25;10.73;;;;;;;15.67;77.46;101523.28;5083888;28;20033;-82
2023/05/03 05:14:19;;;;;;;41.30;12.75;;;;;;;15.79;77.02;101524.91;5070570;28;20035;-86
2023/05/03 05:16:44;;;;;;;68.32;12.60;;;;;;;15.96;76.59;101529.69;5051784;28;20426;-87
2023/05/03 05:19:11;;;;;;;57.67;11.52;;;;;;;15.88;76.19;101510.53;5052333;28;20036;-90
2023/05/03 05:21:37;;;;;;;40.60;10.93;;;;;;;15.97;75.76;101526.00;5052890;28;20040;-89
2023/05/03 05:24:03;;;;;;;29.42;10.57;;;;;;;15.71;75.53;101494.91;5050833;28;20039;-89
2023/05/03 05:26:29;;;;;;;42.75;11.60;;;;;;;16.03;74.29;101520.00;5050931;28;20028;-86
2023/05/03 05:28:57;;;;;;;17.98;8.70;;;;;;;16.05;73.38;101528.88;5061469;28;20029;-89
2023/05/03 05:31:23;;;;;;;42.08;11.52;;;;;;;16.01;72.98;101522.00;5070286;28;20511;-90
2023/05/03 05:33:49;;;;;;;31.27;10.05;;;;;;;16.07;72.41;101531.44;5084233;28;20041;-91
2023/05/03 05:36:14;;;;;;;30.08;9.35;;;;;;;15.90;72.02;101523.97;5070984;28;20048;-90
2023/05/03 05:38:40;;;;;;;39.97;9.95;;;;;;;15.95;72.62;101528.00;5070991;28;20023;-87
2023/05/03 05:41:07;;;;;;;38.78;9.75;;;;;;;16.15;72.29;101529.75;5068993;28;20055;-87
2023/05/03 05:43:32;;;;;;;24.08;7.97;;;;;;;16.01;70.85;101538.28;5070011;28;20025;-86
2023/05/03 05:45:58;;;;;;;22.17;8.55;;;;;;;15.86;70.66;101501.69;5073940;28;20024;-86
2023/05/03 05:48:24;;;;;;;27.83;8.15;;;;;;;16.09;69.38;101538.44;5070806;28;20102;-87
2023/05/03 05:50:49;;;;;;;15.32;7.32;;;;;;;15.95;69.84;101525.28;5072033;28;20040;-93
2023/05/03 05:53:15;;;;;;;29.27;8.77;;;;;;;16.04;70.06;101550.72;5069971;28;20096;-88
2023/05/03 05:55:40;;;;;;;34.47;9.02;;;;;;;15.94;69.32;101547.09;5070335;28;20032;-87
2023/05/03 05:58:06;;;;;;;24.15;8.20;;;;;;;16.09;69.95;101552.03;5071258;28;20032;-87
2023/05/03 06:00:31;;;;;;;20.25;7.68;;;;;;;15.97;70.01;101531.41;5075241;28;20024;-87
2023/05/03 06:02:57;;;;;;;19.20;8.55;;;;;;;16.01;69.07;101546.44;5073349;28;20063;-87
2023/05/03 06:05:22;;;;;;;46.63;10.18;;;;;;;16.01;68.51;101560.00;5088881;28;20029;-85
2023/05/03 06:07:49;;;;;;;44.15;9.77;;;;;;;15.78;69.16;101540.34;5090414;28;20033;-87
2023/05/03 06:10:14;;;;;;;19.70;8.65;;;;;;;15.93;69.76;101553.53;5073700;28;20028;-85
2023/05/03 06:12:40;;;;;;;15.10;6.75;;;;;;;15.94;68.60;101569.69;5070244;28;20039;-82
2023/05/03 06:15:06;;;;;;;18.42;7.57;;;;;;;15.95;69.11;101554.25;5070896;28;20024;-81
2023/05/03 06:17:32;;;;;;;37.03;8.40;;;;;;;15.96;69.16;101556.81;5070636;28;20064;-84
2023/05/03 06:19:57;;;;;;;34.88;8.82;;;;;;;15.95;69.98;101555.13;5068775;28;20109;-88
2023/05/03 06:22:24;;;;;;;44.30;10.07;;;;;;;15.95;69.99;101549.69;5071742;28;20100;-84
2023/05/03 06:24:50;;;;;;;29.10;8.65;;;;;;;15.90;69.19;101573.66;5074540;28;20030;-80
2023/05/03 06:27:15;;;;;;;32.42;7.28;;;;;;;15.94;66.35;101574.22;5073564;28;20032;-82
2023/05/03 06:29:43;;;;;;;17.17;5.85;;;;;;;16.04;65.32;101565.16;5074372;28;20466;-87
2023/05/03 06:32:08;;;;;;;30.60;6.82;;;;;;;16.16;65.27;101568.63;5073279;28;20097;-86
2023/05/03 06:34:34;;;;;;;36.78;6.78;;;;;;;16.28;64.37;101562.09;5074520;28;20697;-86
2023/05/03 06:36:59;;;;;;;39.20;7.75;;;;;;;16.46;63.62;101559.53;5074044;28;20060;-87
2023/05/03 06:39:25;;;;;;;17.42;5.65;;;;;;;16.58;60.74;101534.88;5074656;28;20035;-88
2023/05/03 06:41:50;;;;;;;27.60;5.22;;;;;;;16.70;59.62;101547.31;5075251;28;20025;-87
2023/05/03 06:44:16;;;;;;;29.33;4.97;;;;;;;16.60;56.42;101545.63;5075027;28;20024;-87
2023/05/03 06:46:41;;;;;;;21.50;5.13;;;;;;;16.53;54.21;101536.28;5074343;28;20475;-86
2023/05/03 06:49:07;;;;;;;30.33;4.38;;;;;;;16.70;54.99;101549.16;5072970;28;20107;-87
2023/05/03 06:51:32;;;;;;;22.70;5.45;;;;;;;16.50;55.80;101544.69;5074534;28;20029;-89
2023/05/03 06:54:00;;;;;;;16.33;4.72;;;;;;;16.54;56.52;101541.59;5075160;28;20021;-87
2023/05/03 06:56:27;;;;;;;11.73;4.32;;;;;;;16.47;57.14;101539.53;5078853;28;20032;-86
2023/05/03 06:58:53;;;;;;;15.05;4.70;;;;;;;16.61;56.54;101540.03;5088593;28;20032;-88
2023/05/03 07:01:19;;;;;;;37.80;6.03;;;;;;;16.63;53.96;101521.75;5090217;28;20023;-86
2023/05/03 07:03:46;;;;;;;25.52;5.60;;;;;;;16.57;53.17;101544.03;5092293;28;20032;-87
2023/05/03 07:06:11;;;;;;;25.95;5.25;;;;;;;16.57;52.24;101548.63;5086216;28;20039;-88
2023/05/03 07:08:36;;;;;;;27.45;5.20;;;;;;;16.59;52.62;101549.31;5085661;28;20198;-88
2023/05/03 07:11:03;;;;;;;22.05;4.78;;;;;;;16.44;53.82;101550.69;5090238;28;20096;-86
2023/05/03 07:13:28;;;;;;;12.02;4.07;;;;;;;16.50;54.68;101552.84;5088098;28;20024;-87
2023/05/03 07:15:54;;;;;;;9.60;4.22;;;;;;;16.59;56.50;101554.75;5077451;28;20025;-88
2023/05/03 07:18:20;;;;;;;31.45;5.80;;;;;;;16.64;56.73;101552.47;5069301;28;20036;-87
2023/05/03 07:20:45;;;;;;;22.75;5.40;;;;;;;16.69;55.42;101542.91;5068559;28;20041;-88
2023/05/03 07:23:10;;;;;;;42.20;5.70;;;;;;;16.80;54.40;101552.75;5065058;28;20560;-86
2023/05/03 07:25:38;;;;;;;15.93;5.25;;;;;;;16.83;53.16;101558.78;5062983;28;20040;-87
2023/05/03 07:28:03;;;;;;;43.88;6.22;;;;;;;16.88;53.90;101564.63;5061977;28;20403;-87
2023/05/03 07:30:29;;;;;;;18.65;4.32;;;;;;;16.84;53.70;101548.78;5071331;28;20144;-88
2023/05/03 07:32:54;;;;;;;23.92;5.82;;;;;;;16.86;53.14;101547.63;5072655;28;20036;-87
2023/05/03 07:35:21;;;;;;;33.63;5.60;;;;;;;16.79;53.65;101548.31;5063749;28;20033;-87
2023/05/03 07:37:47;;;;;;;12.18;4.80;;;;;;;16.99;53.55;101549.19;5063694;28;20116;-87
2023/05/03 07:40:13;;;;;;;9.85;4.20;;;;;;;17.05;52.77;101565.78;5062728;28;20117;-85
2023/05/03 07:42:38;;;;;;;34.67;5.93;;;;;;;17.01;52.91;101577.94;5055747;28;20120;-87
2023/05/03 07:45:04;;;;;;;28.80;5.65;;;;;;;17.00;52.53;101591.69;5053572;28;20025;-85
2023/05/03 07:47:31;;;;;;;18.25;4.80;;;;;;;16.99;53.01;101593.53;5057912;28;20037;-86
2023/05/03 07:49:57;;;;;;;12.77;5.05;;;;;;;16.78;54.14;101577.38;5054838;28;20052;-87
2023/05/03 07:52:22;;;;;;;31.15;5.68;;;;;;;16.82;52.90;101583.34;5055805;28;20484;-86
2023/05/03 07:54:48;;;;;;;12.45;3.83;;;;;;;16.95;52.77;101602.97;5056293;28;20040;-86
2023/05/03 07:57:15;;;;;;;21.80;4.43;;;;;;;16.86;53.13;101614.69;5059002;28;20093;-86
2023/05/03 07:59:42;;;;;;;16.10;3.88;;;;;;;16.80;52.46;101607.97;5073612;28;20033;-87
2023/05/03 08:02:08;;;;;;;13.88;4.18;;;;;;;16.95;51.96;101629.28;5070745;28;20075;-87
2023/05/03 08:04:33;;;;;;;22.58;3.10;;;;;;;17.01;51.95;101626.00;5052908;28;20043;-87
2023/05/03 08:07:01;;;;;;;10.77;4.03;;;;;;;17.13;52.31;101636.59;5052528;28;20033;-88
2023/05/03 08:09:27;;;;;;;14.25;4.47;;;;;;;17.14;52.50;101632.03;5053050;28;20121;-88
2023/05/03 08:11:53;;;;;;;20.42;5.28;;;;;;;17.27;53.45;101649.78;5052382;28;20483;-87
2023/05/03 08:14:19;;;;;;;16.38;3.15;;;;;;;17.25;53.86;101624.56;5052415;28;20033;-87
2023/05/03 08:16:44;;;;;;;22.27;4.95;;;;;;;17.48;53.12;101640.59;5070023;28;20494;-86
2023/05/03 08:19:10;;;;;;;31.50;5.65;;;;;;;17.52;53.55;101652.94;5072460;28;20666;-86
2023/05/03 08:21:36;;;;;;;20.52;4.68;;;;;;;17.51;53.84;101654.78;5070118;28;20036;-87
2023/05/03 08:24:04;;;;;;;11.00;4.18;;;;;;;17.46;54.44;101626.31;5071859;28;20031;-87
2023/05/03 08:26:30;;;;;;;19.48;4.25;;;;;;;17.60;54.53;101644.91;5072449;28;20037;-88
2023/05/03 08:28:56;;;;;;;41.10;5.85;;;;;;;17.52;52.96;101642.88;5070724;28;20032;-87
2023/05/03 08:31:21;;;;;;;21.33;4.90;;;;;;;17.55;54.32;101656.22;5072311;28;20127;-87
2023/05/03 08:33:47;;;;;;;27.20;6.53;;;;;;;17.64;54.51;101627.31;5072581;28;20025;-88
2023/05/03 08:36:12;;;;;;;14.82;4.45;;;;;;;17.42;54.42;101637.47;5072169;28;20090;-87
2023/05/03 08:38:40;;;;;;;48.63;29.27;;;;;;;17.52;54.72;101647.47;5073656;28;20021;-86
2023/05/03 08:41:31;;;;;;;11.45;3.70;;;;;;;17.05;55.39;101625.59;5073027;28;20032;-87
2023/05/03 08:43:59;;;;;;;19.20;5.43;;;;;;;17.55;54.92;101669.81;5074142;28;20040;-86
2023/05/03 08:46:24;;;;;;;14.75;4.30;;;;;;;17.60;54.75;101662.09;5072667;28;20079;-86
2023/05/03 08:48:51;;;;;;;17.10;3.90;;;;;;;17.38;55.12;101630.59;5076860;28;20025;-87
2023/05/03 08:51:18;;;;;;;26.33;4.60;;;;;;;17.46;55.30;101650.78;5075953;28;20103;-86
2023/05/03 08:53:45;;;;;;;53.92;6.47;;;;;;;17.60;55.17;101661.25;5075945;28;20091;-85
2023/05/03 08:56:15;;;;;;;34.63;5.25;;;;;;;17.74;55.14;101652.63;5092725;28;20107;-86
2023/05/03 08:58:40;;;;;;;16.55;4.00;;;;;;;17.88;53.49;101663.94;5093390;28;20032;-88
2023/05/03 09:01:08;;;;;;;25.00;4.35;;;;;;;17.94;53.50;101654.31;5073255;28;20023;-88
2023/05/03 09:03:35;;;;;;;24.10;4.55;;;;;;;18.02;53.29;101659.88;5073527;28;20025;-86
2023/05/03 09:06:01;;;;;;;24.25;4.13;;;;;;;17.81;50.59;101642.88;5073304;28;20035;-88
2023/05/03 09:08:28;;;;;;;11.65;3.53;;;;;;;17.84;51.63;101650.75;5072876;28;20037;-88
2023/05/03 09:10:53;;;;;;;14.75;3.83;;;;;;;18.02;51.97;101656.28;5071808;28;20024;-86
2023/05/03 09:13:19;;;;;;;16.38;3.13;;;;;;;17.80;51.17;101630.25;5072167;28;20032;-88
2023/05/03 09:15:55;;;;;;;16.80;3.40;;;;;;;17.93;51.88;101630.81;5071971;28;20032;-88
2023/05/03 09:18:22;;;;;;;19.90;3.83;;;;;;;17.95;51.87;101613.31;5073713;28;20035;-87
2023/05/03 09:20:50;;;;;;;13.60;3.75;;;;;;;18.24;50.58;101624.09;5072090;28;20099;-87
2023/05/03 09:23:18;;;;;;;17.17;3.78;;;;;;;18.11;48.04;101604.50;5071350;28;20021;-87
2023/05/03 09:25:45;;;;;;;12.25;3.13;;;;;;;17.99;48.42;101589.38;5072030;28;20024;-87
2023/05/03 09:28:14;;;;;;;13.05;3.63;;;;;;;18.31;47.18;101598.00;5071920;28;20372;-88
2023/05/03 09:30:41;;;;;;;27.33;3.45;;;;;;;18.38;48.34;101609.13;5071956;28;20107;-88
2023/05/03 09:33:07;;;;;;;34.65;4.47;;;;;;;18.16;47.04;101604.94;5072473;28;20068;-88
2023/05/03 09:35:33;;;;;;;9.50;3.58;;;;;;;18.10;45.95;101605.53;5072300;28;20044;-87
2023/05/03 09:37:59;;;;;;;12.52;2.72;;;;;;;18.12;46.47;101610.81;5071906;28;20021;-87
2023/05/03 09:40:26;;;;;;;8.30;2.75;;;;;;;18.03;46.06;101603.56;5073463;28;20130;-88
2023/05/03 09:43:08;;;;;;;16.17;3.45;;;;;;;18.18;47.05;101619.25;5074032;28;20071;-86
2023/05/03 09:45:37;;;;;;;10.35;2.88;;;;;;;18.20;47.48;101606.34;5076300;28;20060;-87
2023/05/03 09:48:05;;;;;;;10.98;3.25;;;;;;;18.26;47.46;101599.44;5078166;28;20059;-87
2023/05/03 09:50:32;;;;;;;16.10;3.85;;;;;;;18.33;46.44;101606.84;5077125;28;20020;-87
2023/05/03 09:53:03;;;;;;;11.45;2.75;;;;;;;18.36;46.03;101587.50;5093420;28;20055;-87
2023/05/03 09:55:33;;;;;;;22.15;4.03;;;;;;;18.43;45.88;101583.16;5090193;28;20025;-88
2023/05/03 09:57:59;;;;;;;20.02;3.17;;;;;;;18.52;44.86;101599.63;5070628;28;20403;-86
2023/05/03 10:00:28;;;;;;;16.75;3.13;;;;;;;18.63;45.10;101600.25;5072617;28;20121;-89
2023/05/03 10:02:56;;;;;;;5.35;2.75;;;;;;;18.64;43.53;101577.47;5075002;28;20082;-88
2023/05/03 10:05:26;;;;;;;10.65;3.10;;;;;;;18.82;41.85;101580.19;5071218;28;20056;-87
2023/05/03 10:07:55;;;;;;;29.10;3.95;;;;;;;18.95;41.82;101564.31;5073167;28;20556;-88
2023/05/03 10:10:21;;;;;;;18.75;3.75;;;;;;;19.03;42.04;101567.97;5072787;28;20048;-88
2023/05/03 10:12:48;;;;;;;10.27;2.33;;;;;;;19.16;42.21;101567.56;5073326;28;20067;-87
2023/05/03 10:15:16;;;;;;;18.02;2.97;;;;;;;19.20;42.59;101558.06;5071360;28;20111;-87
2023/05/03 10:17:42;;;;;;;12.65;3.60;;;;;;;19.32;41.17;101565.00;5073030;28;20055;-87
2023/05/03 10:20:11;;;;;;;24.63;3.63;;;;;;;19.41;40.83;101571.38;5072379;28;20032;-86
2023/05/03 10:23:03;;;;;;;11.43;3.03;;;;;;;19.45;39.51;101570.91;5072677;28;20032;-86
2023/05/03 10:25:28;;;;;;;34.05;3.67;;;;;;;19.25;39.40;101560.31;5072178;28;20031;-86
2023/05/03 10:28:03;;;;;;;47.78;5.05;;;;;;;19.13;39.95;101572.47;5072184;28;20830;-86
2023/05/03 10:30:33;;;;;;;16.75;3.72;;;;;;;19.29;40.49;101573.50;5072307;28;20028;-87
2023/05/03 10:33:19;;;;;;;8.70;2.90;;;;;;;19.46;39.82;101580.81;5071893;28;20028;-87
2023/05/03 10:35:52;;;;;;;22.13;4.30;;;;;;;19.75;39.72;101568.72;5070789;28;20056;-88
2023/05/03 10:38:22;;;;;;;17.88;3.22;;;;;;;19.91;39.02;101569.66;5071290;28;20028;-87
2023/05/03 10:40:47;;;;;;;15.98;3.15;;;;;;;20.05;39.65;101565.47;5073268;28;20033;-88
2023/05/03 10:43:28;;;;;;;36.95;4.07;;;;;;;20.24;38.36;101564.38;5074948;28;20747;-85
2023/05/03 10:46:00;;;;;;;24.63;3.30;;;;;;;20.11;37.52;101564.81;5075130;28;20021;-88
2023/05/03 10:48:27;;;;;;;46.17;5.65;;;;;;;20.16;37.31;101546.06;5084509;28;20096;-88
2023/05/03 10:50:54;;;;;;;14.38;3.40;;;;;;;20.04;38.25;101550.09;5093268;28;20033;-88
2023/05/03 10:53:43;;;;;;;21.73;4.05;;;;;;;20.14;38.20;101553.56;5082767;28;20027;-88
2023/05/03 10:56:10;;;;;;;9.23;2.88;;;;;;;20.32;38.50;101559.81;5030689;28;20125;-87
2023/05/03 10:58:43;;;;;;;20.35;3.67;;;;;;;20.22;38.04;101550.00;5029638;28;20544;-86
2023/05/03 11:01:10;;;;;;;14.35;3.17;;;;;;;19.68;38.31;101551.28;5029800;28;20132;-87
2023/05/03 11:04:04;;;;;;;6.85;2.72;;;;;;;19.61;38.06;101550.19;5029498;28;20025;-88
2023/05/03 11:06:35;;;;;;;15.25;3.58;;;;;;;19.36;39.59;101536.34;5030026;28;20520;-88
2023/05/03 11:09:02;;;;;;;8.85;3.03;;;;;;;19.36;40.78;101560.03;5031182;28;20093;-88
2023/05/03 11:11:28;;;;;;;18.20;4.43;;;;;;;19.51;41.29;101556.63;5034531;28;20025;-87
2023/05/03 11:13:53;;;;;;;14.30;3.25;;;;;;;19.35;42.09;101540.13;5019585;28;20041;-87
2023/05/03 11:16:19;;;;;;;24.20;4.00;;;;;;;19.45;42.75;101549.06;5033678;28;20074;-86